Freeland, Michigan
Current Conditions -  °F | °C
As of 5:53 AM on Wednesday 22 Oct 2014 (Local Time) from KMBS Reporting Station
Overcast Overcast  
Wind Chill: 38°   Ceiling: 1800
Heat Index: 43°   Visibility: 10mi
Dew Point: 36°   Wind: 8mph
Humidity: 76%   Direction: 340°NNW
Pressure: 30.31"   Gusts: NA
Location:  43.52°N, 84.12°W
Report Text: KMBS 220953Z 34007KT 10SM OVC018 06/02 A3031 RMK AO2 SLP270 T00610022
Loading
Personal Weather Stations






























Interactive Weather Map
Tropical Storm Tracking
New forecast layout! Learn more

10-Day Weather Forecast

Advertisements
Track Severe Weather on mobile